Time;durP1;ratioP1;P1;durP2;ratioP2;P2;SDS_P1;SDS_P2;PMS_P1;PMS_P2;Temp;Humidity;BMP_temperature;BMP_pressure;BME280_temperature;BME280_humidity;BME280_pressure;Samples;Min_cycle;Max_cycle;Signal;HPM_P1;HPM_P2
2024/01/11 00:01:03;;;;;;;;;;;;;;;;;;4974206;28;19922;-75
2024/01/11 00:03:29;;;;;;;;;;;;;;;;;;4973480;28;19921;-75
2024/01/11 00:05:54;;;;;;;;;;;;;;;;;;4972765;28;20321;-75
2024/01/11 00:08:22;;;;;;;;;;;;;;;;;;4973310;28;19929;-75
2024/01/11 00:10:47;;;;;;;;;;;;;;;;;;4971613;28;19922;-76
2024/01/11 00:13:13;;;;;;;;;;;;;;;;;;4954710;28;20032;-76
2024/01/11 00:15:38;;;;;;;;;;;;;;;;;;4973388;28;20008;-74
2024/01/11 00:18:03;;;;;;;;;;;;;;;;;;4966962;28;19917;-76
2024/01/11 00:20:29;;;;;;;;;;;;;;;;;;4974578;28;19925;-75
2024/01/11 00:22:54;;;;;;;;;;;;;;;;;;4970233;28;20101;-76
2024/01/11 00:25:19;;;;;;;;;;;;;;;;;;4952587;28;19929;-75
2024/01/11 00:27:45;;;;;;;;;;;;;;;;;;4954952;28;20259;-76
2024/01/11 00:30:10;;;;;;;;;;;;;;;;;;4970514;28;19921;-75
2024/01/11 00:32:35;;;;;;;;;;;;;;;;;;4973843;28;20202;-75
2024/01/11 00:35:01;;;;;;;;;;;;;;;;;;4969921;28;20781;-75
2024/01/11 00:37:26;;;;;;;;;;;;;;;;;;4972733;28;19928;-75
2024/01/11 00:39:52;;;;;;;;;;;;;;;;;;4951922;28;19988;-75
2024/01/11 00:42:17;;;;;;;;;;;;;;;;;;4972895;28;19984;-75
2024/01/11 00:44:44;;;;;;;;;;;;;;;;;;4970665;28;20027;-74
2024/01/11 00:47:10;;;;;;;;;;;;;;;;;;4967649;28;19937;-74
2024/01/11 00:49:35;;;;;;;;;;;;;;;;;;4966767;28;19921;-74
2024/01/11 00:52:01;;;;;;;;;;;;;;;;;;4971055;28;20009;-74
2024/01/11 00:54:26;;;;;;;;;;;;;;;;;;4953284;28;19998;-75
2024/01/11 00:56:52;;;;;;;;;;;;;;;;;;4972072;28;19918;-75
2024/01/11 00:59:17;;;;;;;;;;;;;;;;;;4973602;28;19929;-74
2024/01/11 01:01:42;;;;;;;;;;;;;;;;;;4952940;28;19921;-74
2024/01/11 01:04:08;;;;;;;;;;;;;;;;;;4970762;28;19917;-74
2024/01/11 01:06:33;;;;;;;;;;;;;;;;;;4970029;28;20004;-75
2024/01/11 01:08:58;;;;;;;;;;;;;;;;;;4971008;28;19918;-74
2024/01/11 01:11:24;;;;;;;;;;;;;;;;;;4969807;28;19930;-74
2024/01/11 01:13:49;;;;;;;;;;;;;;;;;;4953785;28;19929;-74
2024/01/11 01:16:16;;;;;;;;;;;;;;;;;;4967930;28;19969;-75
2024/01/11 01:18:44;;;;;;;;;;;;;;;;;;4951123;28;20321;-74
2024/01/11 01:21:10;;;;;;;;;;;;;;;;;;4954531;28;19926;-75
2024/01/11 01:23:53;;;;;;;;;;;;;;;;;;4951709;28;20391;-74
2024/01/11 01:26:20;;;;;;;;;;;;;;;;;;4970373;28;19924;-75
2024/01/11 01:28:47;;;;;;;;;;;;;;;;;;4955326;28;20005;-74
2024/01/11 01:31:13;;;;;;;;;;;;;;;;;;4970056;28;20503;-74
2024/01/11 01:33:38;;;;;;;;;;;;;;;;;;4970680;28;19922;-75
2024/01/11 01:36:03;;;;;;;;;;;;;;;;;;4970462;28;19948;-75
2024/01/11 01:38:30;;;;;;;;;;;;;;;;;;4971825;28;19922;-75
2024/01/11 01:40:55;;;;;;;;;;;;;;;;;;4970913;28;20021;-75
2024/01/11 01:43:20;;;;;;;;;;;;;;;;;;4951862;28;20167;-74
2024/01/11 01:45:46;;;;;;;;;;;;;;;;;;4970365;28;20154;-75
2024/01/11 01:48:11;;;;;;;;;;;;;;;;;;4964905;28;19921;-75
2024/01/11 01:50:36;;;;;;;;;;;;;;;;;;4975805;28;20443;-75
2024/01/11 01:53:02;;;;;;;;;;;;;;;;;;4974485;28;20373;-74
2024/01/11 01:55:28;;;;;;;;;;;;;;;;;;4971744;28;20044;-75
2024/01/11 01:57:53;;;;;;;;;;;;;;;;;;4976793;28;19940;-75
2024/01/11 02:00:18;;;;;;;;;;;;;;;;;;4973808;28;21672;-75
2024/01/11 02:02:45;;;;;;;;;;;;;;;;;;4976168;28;20349;-74
2024/01/11 02:05:10;;;;;;;;;;;;;;;;;;4971326;28;20553;-74
2024/01/11 02:07:35;;;;;;;;;;;;;;;;;;4976762;28;19922;-76
2024/01/11 02:10:01;;;;;;;;;;;;;;;;;;4974918;28;20320;-75
2024/01/11 02:12:26;;;;;;;;;;;;;;;;;;4975501;28;19925;-75
2024/01/11 02:14:51;;;;;;;;;;;;;;;;;;4974001;28;19956;-75
2024/01/11 02:17:17;;;;;;;;;;;;;;;;;;4970183;28;20048;-74
2024/01/11 02:19:44;;;;;;;;;;;;;;;;;;4970001;28;20539;-74
2024/01/11 02:22:09;;;;;;;;;;;;;;;;;;4974116;28;19917;-74
2024/01/11 02:24:35;;;;;;;;;;;;;;;;;;4973901;28;20308;-75
2024/01/11 02:27:00;;;;;;;;;;;;;;;;;;4975391;28;20429;-75
2024/01/11 02:29:25;;;;;;;;;;;;;;;;;;4974286;28;20008;-75
2024/01/11 02:31:51;;;;;;;;;;;;;;;;;;4975044;28;19932;-74
2024/01/11 02:34:16;;;;;;;;;;;;;;;;;;4972045;28;19922;-74
2024/01/11 02:36:41;;;;;;;;;;;;;;;;;;4975153;28;20498;-75
2024/01/11 02:39:07;;;;;;;;;;;;;;;;;;4971909;28;19925;-75
2024/01/11 02:41:32;;;;;;;;;;;;;;;;;;4956626;28;21427;-75
2024/01/11 02:43:58;;;;;;;;;;;;;;;;;;4974480;28;19983;-75
2024/01/11 02:46:23;;;;;;;;;;;;;;;;;;4972990;28;20401;-75
2024/01/11 02:48:48;;;;;;;;;;;;;;;;;;4965288;28;19925;-75
2024/01/11 02:54:30;;;;;;;;;;;;;;;;;;4972002;28;19968;-75
2024/01/11 02:56:57;;;;;;;;;;;;;;;;;;4974160;28;19918;-74
2024/01/11 02:59:23;;;;;;;;;;;;;;;;;;4972772;28;19925;-74
2024/01/11 03:01:48;;;;;;;;;;;;;;;;;;4974232;28;19913;-74
2024/01/11 03:04:16;;;;;;;;;;;;;;;;;;4970551;28;19913;-75
2024/01/11 03:06:42;;;;;;;;;;;;;;;;;;4971338;28;19913;-75
2024/01/11 03:09:07;;;;;;;;;;;;;;;;;;4973275;28;20362;-75
2024/01/11 03:11:32;;;;;;;;;;;;;;;;;;4971817;28;19917;-74
2024/01/11 03:13:57;;;;;;;;;;;;;;;;;;4973377;28;20021;-74
2024/01/11 03:16:23;;;;;;;;;;;;;;;;;;4972109;28;19924;-75
2024/01/11 03:18:48;;;;;;;;;;;;;;;;;;4965889;28;19921;-74
2024/01/11 03:21:14;;;;;;;;;;;;;;;;;;4956075;28;19922;-74
2024/01/11 03:23:39;;;;;;;;;;;;;;;;;;4972644;28;20255;-74
2024/01/11 03:26:04;;;;;;;;;;;;;;;;;;4989809;28;19921;-74
2024/01/11 03:28:32;;;;;;;;;;;;;;;;;;4972488;28;19980;-75
2024/01/11 03:30:57;;;;;;;;;;;;;;;;;;4972316;28;20630;-75
2024/01/11 03:33:22;;;;;;;;;;;;;;;;;;4971426;28;19997;-75
2024/01/11 03:35:48;;;;;;;;;;;;;;;;;;4972984;28;19918;-75
2024/01/11 03:38:13;;;;;;;;;;;;;;;;;;4973771;28;19918;-75
2024/01/11 03:40:38;;;;;;;;;;;;;;;;;;4972464;28;19949;-75
2024/01/11 03:43:04;;;;;;;;;;;;;;;;;;4972092;28;19918;-75
2024/01/11 03:45:29;;;;;;;;;;;;;;;;;;4955469;28;20259;-75
2024/01/11 03:51:10;;;;;;;;;;;;;;;;;;4992118;28;19925;-75
2024/01/11 03:53:36;;;;;;;;;;;;;;;;;;4992450;28;19921;-76
2024/01/11 03:56:01;;;;;;;;;;;;;;;;;;4993073;28;20035;-76
2024/01/11 03:58:27;;;;;;;;;;;;;;;;;;4976216;28;19921;-75
2024/01/11 04:00:52;;;;;;;;;;;;;;;;;;4992625;28;19921;-75
2024/01/11 04:03:20;;;;;;;;;;;;;;;;;;4972938;28;19924;-75
2024/01/11 04:05:45;;;;;;;;;;;;;;;;;;4973648;28;19922;-75
2024/01/11 04:08:11;;;;;;;;;;;;;;;;;;4962272;28;20464;-74
2024/01/11 04:10:36;;;;;;;;;;;;;;;;;;4991608;28;19922;-76
2024/01/11 04:13:01;;;;;;;;;;;;;;;;;;4974971;28;19957;-75
2024/01/11 04:15:27;;;;;;;;;;;;;;;;;;4959776;28;19937;-75
2024/01/11 04:17:52;;;;;;;;;;;;;;;;;;4956543;28;20365;-74
2024/01/11 04:23:33;;;;;;;;;;;;;;;;;;4992768;28;20004;-75
2024/01/11 04:25:59;;;;;;;;;;;;;;;;;;4958211;28;19914;-74
2024/01/11 04:28:24;;;;;;;;;;;;;;;;;;4974969;28;20421;-75
2024/01/11 04:30:50;;;;;;;;;;;;;;;;;;4991898;28;19917;-75
2024/01/11 04:33:15;;;;;;;;;;;;;;;;;;4974166;28;20776;-75
2024/01/11 04:35:40;;;;;;;;;;;;;;;;;;4975108;28;19928;-74
2024/01/11 04:38:06;;;;;;;;;;;;;;;;;;4975558;28;19937;-75
2024/01/11 04:40:31;;;;;;;;;;;;;;;;;;4976346;28;19936;-74
2024/01/11 04:42:56;;;;;;;;;;;;;;;;;;4976470;28;19928;-74
2024/01/11 04:45:22;;;;;;;;;;;;;;;;;;4974338;28;19921;-75
2024/01/11 04:47:47;;;;;;;;;;;;;;;;;;4971663;28;19925;-75
2024/01/11 04:53:28;;;;;;;;;;;;;;;;;;4992959;28;20461;-75
2024/01/11 04:55:54;;;;;;;;;;;;;;;;;;4974981;28;19921;-74
2024/01/11 04:58:19;;;;;;;;;;;;;;;;;;4975843;28;19928;-75
2024/01/11 05:00:44;;;;;;;;;;;;;;;;;;4996127;28;19925;-73
2024/01/11 05:03:10;;;;;;;;;;;;;;;;;;4973286;28;19917;-73
2024/01/11 05:05:35;;;;;;;;;;;;;;;;;;4977568;28;19917;-74
2024/01/11 05:08:00;;;;;;;;;;;;;;;;;;4996912;28;20399;-74
2024/01/11 05:10:26;;;;;;;;;;;;;;;;;;4979856;28;19917;-75
2024/01/11 05:12:51;;;;;;;;;;;;;;;;;;4980185;28;19971;-75
2024/01/11 05:15:16;;;;;;;;;;;;;;;;;;4997077;28;20164;-75
2024/01/11 05:17:43;;;;;;;;;;;;;;;;;;4993848;28;19913;-74
2024/01/11 05:20:08;;;;;;;;;;;;;;;;;;4997924;28;20558;-74
2024/01/11 05:22:34;;;;;;;;;;;;;;;;;;4964220;28;20140;-75
2024/01/11 05:24:59;;;;;;;;;;;;;;;;;;4982863;28;20014;-75
2024/01/11 05:27:24;;;;;;;;;;;;;;;;;;4999997;28;19922;-74
2024/01/11 05:29:50;;;;;;;;;;;;;;;;;;5002707;28;19969;-74
2024/01/11 05:32:15;;;;;;;;;;;;;;;;;;5001172;28;20423;-75
2024/01/11 05:34:41;;;;;;;;;;;;;;;;;;5001521;28;20273;-75
2024/01/11 05:37:06;;;;;;;;;;;;;;;;;;4985646;28;19921;-75
2024/01/11 05:39:32;;;;;;;;;;;;;;;;;;5003055;28;20341;-74
2024/01/11 05:41:57;;;;;;;;;;;;;;;;;;4983979;28;20008;-75
2024/01/11 05:44:22;;;;;;;;;;;;;;;;;;4968581;28;19922;-75
2024/01/11 05:46:48;;;;;;;;;;;;;;;;;;4982098;28;19928;-75
2024/01/11 05:49:13;;;;;;;;;;;;;;;;;;4997239;28;19997;-75
2024/01/11 05:51:38;;;;;;;;;;;;;;;;;;4985854;28;19948;-75
2024/01/11 05:54:04;;;;;;;;;;;;;;;;;;4985588;28;20242;-73
2024/01/11 05:56:29;;;;;;;;;;;;;;;;;;4985391;28;20656;-75
2024/01/11 05:58:55;;;;;;;;;;;;;;;;;;4982575;28;19987;-76
2024/01/11 06:01:21;;;;;;;;;;;;;;;;;;4987257;28;19914;-75
2024/01/11 06:03:47;;;;;;;;;;;;;;;;;;4967459;28;19937;-74
2024/01/11 06:06:12;;;;;;;;;;;;;;;;;;4986759;28;19929;-75
2024/01/11 06:08:42;;;;;;;;;;;;;;;;;;4988265;28;19914;-75
2024/01/11 06:11:07;;;;;;;;;;;;;;;;;;4970479;28;20401;-75
2024/01/11 06:16:49;;;;;;;;;;;;;;;;;;4983974;28;19956;-76
2024/01/11 06:19:15;;;;;;;;;;;;;;;;;;4981972;28;19924;-74
2024/01/11 06:21:40;;;;;;;;;;;;;;;;;;4967343;28;19914;-74
2024/01/11 06:24:06;;;;;;;;;;;;;;;;;;4986442;28;19922;-75
2024/01/11 06:26:31;;;;;;;;;;;;;;;;;;4969440;28;20013;-76
2024/01/11 06:28:56;;;;;;;;;;;;;;;;;;4985775;28;20030;-75
2024/01/11 06:31:22;;;;;;;;;;;;;;;;;;4984300;28;19917;-75
2024/01/11 06:33:47;;;;;;;;;;;;;;;;;;4983277;28;19914;-74
2024/01/11 06:36:12;;;;;;;;;;;;;;;;;;4972568;28;19920;-75
2024/01/11 06:38:38;;;;;;;;;;;;;;;;;;4971148;28;20213;-75
2024/01/11 06:41:03;;;;;;;;;;;;;;;;;;4990339;28;19914;-76
2024/01/11 06:43:28;;;;;;;;;;;;;;;;;;4973371;28;20001;-74
2024/01/11 06:45:53;;;;;;;;;;;;;;;;;;4991435;28;19921;-74
2024/01/11 06:48:19;;;;;;;;;;;;;;;;;;4990985;28;19913;-75
2024/01/11 06:50:44;;;;;;;;;;;;;;;;;;4986396;28;19914;-74
2024/01/11 06:53:09;;;;;;;;;;;;;;;;;;4972286;28;20219;-75
2024/01/11 06:55:35;;;;;;;;;;;;;;;;;;5006859;28;20373;-74
2024/01/11 06:58:01;;;;;;;;;;;;;;;;;;4988330;28;19913;-75
2024/01/11 07:00:27;;;;;;;;;;;;;;;;;;4986022;28;20588;-74
2024/01/11 07:02:53;;;;;;;;;;;;;;;;;;4972193;28;19917;-74
2024/01/11 07:05:19;;;;;;;;;;;;;;;;;;5004230;28;19918;-75
2024/01/11 07:07:44;;;;;;;;;;;;;;;;;;5003922;28;20296;-73
2024/01/11 07:10:09;;;;;;;;;;;;;;;;;;5004556;28;19979;-74
2024/01/11 07:12:37;;;;;;;;;;;;;;;;;;4966527;28;20550;-74
2024/01/11 07:15:03;;;;;;;;;;;;;;;;;;5001245;28;20385;-74
2024/01/11 07:17:29;;;;;;;;;;;;;;;;;;4984733;28;20527;-75
2024/01/11 07:19:55;;;;;;;;;;;;;;;;;;4965144;28;20004;-74
2024/01/11 07:22:20;;;;;;;;;;;;;;;;;;4999248;28;20396;-76
2024/01/11 07:24:45;;;;;;;;;;;;;;;;;;4998761;28;19921;-75
2024/01/11 07:27:11;;;;;;;;;;;;;;;;;;4982490;28;19919;-75
2024/01/11 07:29:36;;;;;;;;;;;;;;;;;;4964871;28;20008;-75
2024/01/11 07:32:03;;;;;;;;;;;;;;;;;;4967040;28;20008;-75
2024/01/11 07:34:29;;;;;;;;;;;;;;;;;;4980459;28;20269;-74
2024/01/11 07:36:54;;;;;;;;;;;;;;;;;;4991502;28;20121;-74
2024/01/11 07:39:19;;;;;;;;;;;;;;;;;;4957150;28;19928;-75
2024/01/11 07:41:44;;;;;;;;;;;;;;;;;;4975587;28;19921;-73
2024/01/11 07:44:10;;;;;;;;;;;;;;;;;;4978786;28;19921;-73
2024/01/11 07:46:36;;;;;;;;;;;;;;;;;;4988949;28;19922;-75
2024/01/11 07:49:01;;;;;;;;;;;;;;;;;;4974167;28;20320;-75
2024/01/11 07:51:27;;;;;;;;;;;;;;;;;;4972752;28;19922;-76
2024/01/11 07:53:52;;;;;;;;;;;;;;;;;;4972699;28;19917;-74
2024/01/11 07:56:17;;;;;;;;;;;;;;;;;;4974332;28;20425;-74
2024/01/11 07:58:42;;;;;;;;;;;;;;;;;;4957209;28;19957;-74
2024/01/11 08:01:08;;;;;;;;;;;;;;;;;;4975132;28;19921;-75
2024/01/11 08:03:34;;;;;;;;;;;;;;;;;;4976014;28;19976;-73
2024/01/11 08:06:00;;;;;;;;;;;;;;;;;;4974133;28;20597;-75
2024/01/11 08:08:26;;;;;;;;;;;;;;;;;;4957475;28;19933;-74
2024/01/11 08:10:51;;;;;;;;;;;;;;;;;;4972553;28;19925;-74
2024/01/11 08:13:17;;;;;;;;;;;;;;;;;;4974323;28;19922;-75
2024/01/11 08:15:42;;;;;;;;;;;;;;;;;;4973152;28;19940;-74
2024/01/11 08:18:08;;;;;;;;;;;;;;;;;;4971997;28;19922;-75
2024/01/11 08:20:33;;;;;;;;;;;;;;;;;;4969228;28;19926;-74
2024/01/11 08:22:58;;;;;;;;;;;;;;;;;;4964412;28;20397;-74
2024/01/11 08:25:24;;;;;;;;;;;;;;;;;;4967679;28;19949;-74
2024/01/11 08:27:49;;;;;;;;;;;;;;;;;;4964348;28;20407;-74
2024/01/11 08:30:15;;;;;;;;;;;;;;;;;;4967975;28;20068;-74
2024/01/11 08:32:41;;;;;;;;;;;;;;;;;;4962824;28;19914;-74
2024/01/11 08:35:08;;;;;;;;;;;;;;;;;;4963285;28;19918;-75
2024/01/11 08:37:33;;;;;;;;;;;;;;;;;;4970003;28;19918;-77
2024/01/11 08:40:01;;;;;;;;;;;;;;;;;;4955849;28;19922;-77
2024/01/11 08:42:29;;;;;;;;;;;;;;;;;;4956142;28;20008;-78
2024/01/11 08:44:57;;;;;;;;;;;;;;;;;;4973105;28;19917;-78
2024/01/11 08:47:25;;;;;;;;;;;;;;;;;;4958180;28;20467;-77
2024/01/11 08:49:53;;;;;;;;;;;;;;;;;;4972766;28;20401;-77
2024/01/11 08:52:22;;;;;;;;;;;;;;;;;;4954880;28;20063;-77
2024/01/11 08:54:49;;;;;;;;;;;;;;;;;;4968741;28;19922;-77
2024/01/11 08:57:15;;;;;;;;;;;;;;;;;;4954951;28;19925;-78
2024/01/11 08:59:40;;;;;;;;;;;;;;;;;;4955782;28;19929;-78
2024/01/11 09:02:09;;;;;;;;;;;;;;;;;;4957824;28;19922;-77
2024/01/11 09:04:37;;;;;;;;;;;;;;;;;;4954806;28;19929;-77
2024/01/11 09:07:05;;;;;;;;;;;;;;;;;;4973443;28;20401;-77
2024/01/11 09:09:30;;;;;;;;;;;;;;;;;;4973711;28;19922;-78
2024/01/11 09:11:59;;;;;;;;;;;;;;;;;;4957717;28;19928;-77
2024/01/11 09:14:25;;;;;;;;;;;;;;;;;;4972105;28;19922;-77
2024/01/11 09:20:09;;;;;;;;;;;;;;;;;;4974430;28;19932;-76
2024/01/11 09:22:34;;;;;;;;;;;;;;;;;;4955183;28;19924;-76
2024/01/11 09:25:17;;;;;;;;;;;;;;;;;;4971309;28;20016;-75
2024/01/11 09:27:43;;;;;;;;;;;;;;;;;;4971543;28;19918;-75
2024/01/11 09:30:08;;;;;;;;;;;;;;;;;;4976247;28;20388;-75
2024/01/11 09:32:36;;;;;;;;;;;;;;;;;;4974672;28;19918;-74
2024/01/11 09:35:02;;;;;;;;;;;;;;;;;;4972599;28;20283;-74
2024/01/11 09:37:27;;;;;;;;;;;;;;;;;;4971659;28;19921;-75
2024/01/11 09:39:53;;;;;;;;;;;;;;;;;;4972805;28;19918;-74
2024/01/11 09:42:18;;;;;;;;;;;;;;;;;;4955830;28;19925;-74
2024/01/11 09:44:43;;;;;;;;;;;;;;;;;;4974385;28;19929;-73
2024/01/11 09:47:09;;;;;;;;;;;;;;;;;;4956505;28;19937;-74
2024/01/11 09:49:34;;;;;;;;;;;;;;;;;;4956562;28;20076;-73
2024/01/11 09:52:01;;;;;;;;;;;;;;;;;;4969674;28;19929;-73
2024/01/11 09:54:26;;;;;;;;;;;;;;;;;;4971494;28;19922;-73
2024/01/11 09:56:51;;;;;;;;;;;;;;;;;;4973579;28;19917;-74
2024/01/11 09:59:17;;;;;;;;;;;;;;;;;;4972526;28;19930;-74
2024/01/11 10:01:42;;;;;;;;;;;;;;;;;;4972913;28;19944;-74
2024/01/11 10:04:07;;;;;;;;;;;;;;;;;;4957358;28;19929;-74
2024/01/11 10:06:36;;;;;;;;;;;;;;;;;;4972250;28;20448;-74
2024/01/11 10:09:01;;;;;;;;;;;;;;;;;;4970791;28;20687;-73
2024/01/11 10:11:27;;;;;;;;;;;;;;;;;;4977130;28;20180;-73
2024/01/11 10:13:52;;;;;;;;;;;;;;;;;;4959986;28;19925;-73
2024/01/11 10:16:18;;;;;;;;;;;;;;;;;;4975939;28;19917;-74
2024/01/11 10:18:44;;;;;;;;;;;;;;;;;;4975295;28;20388;-73
2024/01/11 10:21:09;;;;;;;;;;;;;;;;;;4977001;28;19918;-73
2024/01/11 10:23:35;;;;;;;;;;;;;;;;;;4961354;28;19928;-74
2024/01/11 10:26:00;;;;;;;;;;;;;;;;;;4957623;28;20528;-72
2024/01/11 10:28:26;;;;;;;;;;;;;;;;;;4976123;28;19918;-73
2024/01/11 10:30:55;;;;;;;;;;;;;;;;;;4978207;28;20334;-73
2024/01/11 10:33:21;;;;;;;;;;;;;;;;;;4981535;28;21506;-72
2024/01/11 10:35:49;;;;;;;;;;;;;;;;;;4981236;28;19914;-72
2024/01/11 10:38:15;;;;;;;;;;;;;;;;;;4982991;28;19933;-72
2024/01/11 10:40:40;;;;;;;;;;;;;;;;;;4982611;28;19948;-73
2024/01/11 10:43:05;;;;;;;;;;;;;;;;;;4980486;28;19922;-73
2024/01/11 10:45:30;;;;;;;;;;;;;;;;;;4958471;28;20558;-73
2024/01/11 10:47:59;;;;;;;;;;;;;;;;;;4954801;28;19929;-73
2024/01/11 10:50:24;;;;;;;;;;;;;;;;;;4975838;28;20005;-73
2024/01/11 10:52:50;;;;;;;;;;;;;;;;;;4977039;28;19922;-73
2024/01/11 10:55:16;;;;;;;;;;;;;;;;;;4957860;28;20405;-73
2024/01/11 10:57:41;;;;;;;;;;;;;;;;;;4975000;28;19924;-73
2024/01/11 11:00:09;;;;;;;;;;;;;;;;;;4976041;28;19976;-74
2024/01/11 11:02:36;;;;;;;;;;;;;;;;;;4959528;28;20484;-73
2024/01/11 11:05:04;;;;;;;;;;;;;;;;;;4975392;28;19921;-73
2024/01/11 11:07:29;;;;;;;;;;;;;;;;;;4990269;28;19921;-73
2024/01/11 11:09:54;;;;;;;;;;;;;;;;;;4975044;28;19929;-74
2024/01/11 11:12:21;;;;;;;;;;;;;;;;;;4975112;28;19925;-73
2024/01/11 11:14:47;;;;;;;;;;;;;;;;;;4972572;28;19971;-72
2024/01/11 11:17:15;;;;;;;;;;;;;;;;;;4988675;28;19968;-74
2024/01/11 11:19:41;;;;;;;;;;;;;;;;;;4958065;28;19928;-73
2024/01/11 11:22:06;;;;;;;;;;;;;;;;;;4986873;28;19918;-73
2024/01/11 11:24:32;;;;;;;;;;;;;;;;;;4975939;28;20424;-73
2024/01/11 11:26:59;;;;;;;;;;;;;;;;;;4973009;28;20578;-73
2024/01/11 11:29:24;;;;;;;;;;;;;;;;;;4973565;28;19920;-72
2024/01/11 11:31:57;;;;;;;;;;;;;;;;;;4957182;28;19922;-73
2024/01/11 11:34:23;;;;;;;;;;;;;;;;;;4973082;28;19948;-72
2024/01/11 11:36:50;;;;;;;;;;;;;;;;;;4974735;28;21584;-73
2024/01/11 11:39:15;;;;;;;;;;;;;;;;;;4975227;28;20291;-72
2024/01/11 11:41:42;;;;;;;;;;;;;;;;;;4973744;28;19924;-72
2024/01/11 11:44:07;;;;;;;;;;;;;;;;;;4973656;28;20012;-71
2024/01/11 11:46:33;;;;;;;;;;;;;;;;;;4974031;28;20281;-72
2024/01/11 11:49:01;;;;;;;;;;;;;;;;;;4972611;28;19925;-71
2024/01/11 11:51:27;;;;;;;;;;;;;;;;;;4956826;28;19961;-71
2024/01/11 11:53:53;;;;;;;;;;;;;;;;;;4975502;28;19921;-71
2024/01/11 11:56:18;;;;;;;;;;;;;;;;;;4974823;28;20562;-72
2024/01/11 11:59:02;;;;;;;;;;;;;;;;;;4975050;28;22099;-71
2024/01/11 12:01:28;;;;;;;;;;;;;;;;;;4971763;28;19928;-71
2024/01/11 12:03:53;;;;;;;;;;;;;;;;;;4973221;28;19918;-72
2024/01/11 12:06:23;;;;;;;;;;;;;;;;;;4974173;28;20350;-71
2024/01/11 12:08:48;;;;;;;;;;;;;;;;;;4972027;28;19917;-71
2024/01/11 12:11:17;;;;;;;;;;;;;;;;;;4973593;28;19969;-70
2024/01/11 12:13:44;;;;;;;;;;;;;;;;;;4972674;28;20336;-70
2024/01/11 12:16:10;;;;;;;;;;;;;;;;;;4953926;28;19918;-70
2024/01/11 12:18:35;;;;;;;;;;;;;;;;;;4973360;28;19967;-69
2024/01/11 12:21:03;;;;;;;;;;;;;;;;;;4973326;28;20381;-69
2024/01/11 12:23:33;;;;;;;;;;;;;;;;;;4973073;28;19917;-69
2024/01/11 12:26:00;;;;;;;;;;;;;;;;;;4971882;28;19922;-70
2024/01/11 12:28:27;;;;;;;;;;;;;;;;;;4970037;28;19922;-69
2024/01/11 12:30:56;;;;;;;;;;;;;;;;;;4987370;28;19988;-71
2024/01/11 12:33:21;;;;;;;;;;;;;;;;;;4951515;28;20444;-70
2024/01/11 12:35:47;;;;;;;;;;;;;;;;;;4955930;28;19973;-67
2024/01/11 12:38:12;;;;;;;;;;;;;;;;;;4972226;28;20445;-69
2024/01/11 12:40:37;;;;;;;;;;;;;;;;;;4972230;28;20296;-69
2024/01/11 12:43:05;;;;;;;;;;;;;;;;;;4954963;28;19918;-69
2024/01/11 12:45:32;;;;;;;;;;;;;;;;;;4969297;28;19921;-69
2024/01/11 12:47:57;;;;;;;;;;;;;;;;;;4955695;28;20027;-69
2024/01/11 12:50:22;;;;;;;;;;;;;;;;;;4972930;28;20605;-69
2024/01/11 12:52:48;;;;;;;;;;;;;;;;;;4987309;28;19929;-70
2024/01/11 12:55:13;;;;;;;;;;;;;;;;;;4971732;28;20393;-69
2024/01/11 12:57:38;;;;;;;;;;;;;;;;;;4972471;28;19992;-69
2024/01/11 13:00:04;;;;;;;;;;;;;;;;;;4972817;28;20439;-70
2024/01/11 13:02:30;;;;;;;;;;;;;;;;;;4969972;28;19922;-70
2024/01/11 13:05:00;;;;;;;;;;;;;;;;;;4973428;28;19921;-69
2024/01/11 13:07:25;;;;;;;;;;;;;;;;;;4955194;28;20014;-70
2024/01/11 13:09:56;;;;;;;;;;;;;;;;;;4972597;28;20535;-70
2024/01/11 13:12:21;;;;;;;;;;;;;;;;;;4971348;28;19969;-71
2024/01/11 13:14:47;;;;;;;;;;;;;;;;;;4972116;28;20162;-69
2024/01/11 13:17:12;;;;;;;;;;;;;;;;;;4954414;28;19967;-69
2024/01/11 13:19:40;;;;;;;;;;;;;;;;;;4955329;28;19957;-70
2024/01/11 13:22:05;;;;;;;;;;;;;;;;;;4972186;28;20588;-71
2024/01/11 13:24:30;;;;;;;;;;;;;;;;;;4953170;28;19922;-69
2024/01/11 13:26:56;;;;;;;;;;;;;;;;;;4972414;28;19918;-70
2024/01/11 13:29:21;;;;;;;;;;;;;;;;;;4953966;28;19917;-70
2024/01/11 13:31:47;;;;;;;;;;;;;;;;;;4968603;28;19921;-70
2024/01/11 13:34:15;;;;;;;;;;;;;;;;;;4972337;28;19925;-70
2024/01/11 13:36:40;;;;;;;;;;;;;;;;;;4971420;28;20011;-71
2024/01/11 13:39:08;;;;;;;;;;;;;;;;;;4974355;28;19933;-70
2024/01/11 13:41:36;;;;;;;;;;;;;;;;;;4972808;28;19918;-70
2024/01/11 13:44:05;;;;;;;;;;;;;;;;;;4974712;28;20319;-70
2024/01/11 13:46:31;;;;;;;;;;;;;;;;;;4976445;28;19925;-72
2024/01/11 13:48:59;;;;;;;;;;;;;;;;;;4976427;28;20419;-70
2024/01/11 13:51:24;;;;;;;;;;;;;;;;;;4975964;28;19932;-70
2024/01/11 13:53:49;;;;;;;;;;;;;;;;;;4974271;28;21558;-70
2024/01/11 13:56:14;;;;;;;;;;;;;;;;;;4973378;28;20316;-70
2024/01/11 13:58:40;;;;;;;;;;;;;;;;;;4957528;28;20309;-71
2024/01/11 14:01:07;;;;;;;;;;;;;;;;;;4977102;28;19936;-70
2024/01/11 14:03:33;;;;;;;;;;;;;;;;;;4973267;28;19980;-69
2024/01/11 14:05:59;;;;;;;;;;;;;;;;;;4975402;28;19925;-69
2024/01/11 14:08:27;;;;;;;;;;;;;;;;;;4973872;28;19922;-69
2024/01/11 14:10:54;;;;;;;;;;;;;;;;;;4959610;28;20441;-69
2024/01/11 14:13:23;;;;;;;;;;;;;;;;;;4975686;28;20273;-69
2024/01/11 14:15:51;;;;;;;;;;;;;;;;;;4972512;28;20001;-69
2024/01/11 14:18:19;;;;;;;;;;;;;;;;;;4955649;28;19929;-69
2024/01/11 14:20:44;;;;;;;;;;;;;;;;;;4974723;28;19918;-71
2024/01/11 14:23:10;;;;;;;;;;;;;;;;;;4972354;28;20020;-69
2024/01/11 14:25:36;;;;;;;;;;;;;;;;;;4975550;28;19941;-71
2024/01/11 14:28:01;;;;;;;;;;;;;;;;;;4956344;28;20396;-69
2024/01/11 14:30:27;;;;;;;;;;;;;;;;;;4975003;28;20188;-71
2024/01/11 14:32:52;;;;;;;;;;;;;;;;;;4973634;28;19932;-71
2024/01/11 14:35:20;;;;;;;;;;;;;;;;;;4973797;28;20379;-69
2024/01/11 14:37:49;;;;;;;;;;;;;;;;;;4990072;28;19921;-69
2024/01/11 14:40:14;;;;;;;;;;;;;;;;;;4972694;28;19927;-69
2024/01/11 14:42:46;;;;;;;;;;;;;;;;;;4976221;28;19922;-70
2024/01/11 14:45:13;;;;;;;;;;;;;;;;;;4970601;28;19972;-68
2024/01/11 14:47:39;;;;;;;;;;;;;;;;;;4980485;28;19930;-68
2024/01/11 14:50:04;;;;;;;;;;;;;;;;;;4969954;28;19918;-68
2024/01/11 14:52:32;;;;;;;;;;;;;;;;;;4946465;28;19932;-68
2024/01/11 14:54:57;;;;;;;;;;;;;;;;;;4957468;28;19924;-67
2024/01/11 14:57:31;;;;;;;;;;;;;;;;;;4954110;28;19969;-69
2024/01/11 14:59:57;;;;;;;;;;;;;;;;;;4972597;28;19972;-68
2024/01/11 15:02:22;;;;;;;;;;;;;;;;;;4967412;28;19918;-68
2024/01/11 15:04:50;;;;;;;;;;;;;;;;;;4963341;28;19956;-66
2024/01/11 15:10:34;;;;;;;;;;;;;;;;;;4973390;28;21130;-68
2024/01/11 15:13:02;;;;;;;;;;;;;;;;;;4972795;28;20083;-68
2024/01/11 15:15:30;;;;;;;;;;;;;;;;;;4964310;28;20041;-67
2024/01/11 15:17:55;;;;;;;;;;;;;;;;;;4971267;28;19926;-68
2024/01/11 15:20:22;;;;;;;;;;;;;;;;;;4953306;28;19925;-68
2024/01/11 15:22:47;;;;;;;;;;;;;;;;;;4953584;28;19979;-68
2024/01/11 15:25:15;;;;;;;;;;;;;;;;;;4971664;28;20476;-68
2024/01/11 15:27:41;;;;;;;;;;;;;;;;;;4965698;28;19928;-67
2024/01/11 15:30:06;;;;;;;;;;;;;;;;;;4952875;28;20380;-68
2024/01/11 15:32:31;;;;;;;;;;;;;;;;;;4945911;28;19967;-69
2024/01/11 15:34:57;;;;;;;;;;;;;;;;;;4973695;28;19937;-68
2024/01/11 15:37:28;;;;;;;;;;;;;;;;;;4968398;28;19964;-67
2024/01/11 15:39:56;;;;;;;;;;;;;;;;;;4968874;28;19928;-68
2024/01/11 15:42:23;;;;;;;;;;;;;;;;;;4972052;28;20881;-68
2024/01/11 15:44:52;;;;;;;;;;;;;;;;;;4971165;28;20617;-68
2024/01/11 15:47:19;;;;;;;;;;;;;;;;;;4966140;28;19937;-70
2024/01/11 15:49:45;;;;;;;;;;;;;;;;;;4971564;28;19925;-69
2024/01/11 15:52:10;;;;;;;;;;;;;;;;;;4971056;28;20081;-69
2024/01/11 15:54:35;;;;;;;;;;;;;;;;;;4968392;28;19988;-69
2024/01/11 15:57:01;;;;;;;;;;;;;;;;;;4971095;28;19918;-68
2024/01/11 15:59:29;;;;;;;;;;;;;;;;;;4970237;28;20304;-68
2024/01/11 16:01:56;;;;;;;;;;;;;;;;;;4970087;28;19930;-67
2024/01/11 16:04:25;;;;;;;;;;;;;;;;;;4969929;28;20118;-68
2024/01/11 16:06:50;;;;;;;;;;;;;;;;;;4970287;28;20634;-68
2024/01/11 16:09:18;;;;;;;;;;;;;;;;;;4971663;28;19924;-67
2024/01/11 16:11:44;;;;;;;;;;;;;;;;;;4972691;28;20294;-67
2024/01/11 16:17:32;;;;;;;;;;;;;;;;;;4971730;28;19968;-68
2024/01/11 16:19:57;;;;;;;;;;;;;;;;;;4971837;28;19921;-68
2024/01/11 16:22:23;;;;;;;;;;;;;;;;;;4954427;28;19941;-68
2024/01/11 16:24:48;;;;;;;;;;;;;;;;;;4972741;28;19928;-68
2024/01/11 16:27:15;;;;;;;;;;;;;;;;;;4952602;28;19985;-67
2024/01/11 16:29:41;;;;;;;;;;;;;;;;;;4974538;28;20008;-70
2024/01/11 16:32:06;;;;;;;;;;;;;;;;;;4969374;28;20397;-70
2024/01/11 16:34:32;;;;;;;;;;;;;;;;;;4968442;28;20422;-68
2024/01/11 16:37:00;;;;;;;;;;;;;;;;;;4952088;28;20598;-69
2024/01/11 16:39:26;;;;;;;;;;;;;;;;;;4967885;28;20010;-68
2024/01/11 16:41:54;;;;;;;;;;;;;;;;;;4955145;28;19925;-69
2024/01/11 16:44:19;;;;;;;;;;;;;;;;;;4983032;28;19921;-69
2024/01/11 16:49:35;;;;;;;;;;;;;;;;;;4971553;28;20040;-68
2024/01/11 16:52:04;;;;;;;;;;;;;;;;;;4966351;28;20336;-69
2024/01/11 16:54:32;;;;;;;;;;;;;;;;;;4970785;28;20390;-70
2024/01/11 16:56:57;;;;;;;;;;;;;;;;;;4953030;28;19971;-69
2024/01/11 16:59:23;;;;;;;;;;;;;;;;;;4969310;28;19932;-69
2024/01/11 17:01:48;;;;;;;;;;;;;;;;;;4971250;28;19945;-69
2024/01/11 17:04:14;;;;;;;;;;;;;;;;;;4973433;28;19958;-69
2024/01/11 17:06:39;;;;;;;;;;;;;;;;;;4965091;28;19925;-69